createdAt,value
2023-04-02T00:00:47.279Z,25.00
2023-04-02T00:01:47.380Z,25.00
2023-04-02T00:02:47.342Z,0.00
2023-04-02T00:03:47.375Z,0.00
2023-04-02T00:04:47.317Z,0.00
2023-04-02T00:05:47.345Z,0.00
2023-04-02T00:06:47.368Z,0.00
2023-04-02T00:07:47.390Z,0.00
2023-04-02T00:08:47.417Z,0.00
2023-04-02T00:09:47.465Z,0.00
2023-04-02T00:10:47.456Z,4.75
2023-04-02T00:11:47.460Z,24.85
2023-04-02T00:12:47.497Z,26.85
2023-04-02T00:13:47.499Z,24.72
2023-04-02T00:14:47.512Z,26.33
2023-04-02T00:15:47.575Z,25.00
2023-04-02T00:16:47.633Z,25.00
2023-04-02T00:17:47.574Z,25.00
2023-04-02T00:18:47.574Z,25.00
2023-04-02T00:19:47.617Z,25.00
2023-04-02T00:20:47.649Z,26.26
2023-04-02T00:21:47.673Z,26.96
2023-04-02T00:22:47.672Z,26.25
2023-04-02T00:23:47.689Z,26.80
2023-04-02T00:24:47.696Z,25.38
2023-04-02T00:25:47.742Z,26.82
2023-04-02T00:26:47.763Z,28.08
2023-04-02T00:27:47.813Z,28.04
2023-04-02T00:28:47.866Z,27.00
2023-04-02T00:29:47.864Z,27.89
2023-04-02T00:30:47.896Z,26.86
2023-04-02T00:31:47.997Z,25.09
2023-04-02T00:32:47.988Z,25.00
2023-04-02T00:33:47.994Z,26.51
2023-04-02T00:34:48.031Z,29.07
2023-04-02T00:35:48.089Z,26.88
2023-04-02T00:36:48.093Z,25.34
2023-04-02T00:37:48.121Z,26.29
2023-04-02T00:38:48.799Z,25.68
2023-04-02T00:39:48.207Z,25.72
2023-04-02T00:40:48.245Z,29.14
2023-04-02T00:41:48.274Z,26.16
2023-04-02T00:42:48.289Z,26.32
2023-04-02T00:43:48.299Z,25.27
2023-04-02T00:44:48.357Z,26.64
2023-04-02T00:45:48.377Z,25.35
2023-04-02T00:46:48.411Z,25.56
2023-04-02T00:47:48.468Z,27.36
2023-04-02T00:48:48.470Z,27.34
2023-04-02T00:49:48.505Z,26.33
2023-04-02T00:50:48.522Z,27.89
2023-04-02T00:51:48.568Z,25.00
2023-04-02T00:52:48.602Z,27.02
2023-04-02T00:53:48.635Z,27.53
2023-04-02T00:54:48.663Z,25.32
2023-04-02T00:55:48.683Z,27.68
2023-04-02T00:56:48.696Z,26.72
2023-04-02T00:57:48.704Z,25.84
2023-04-02T00:58:48.716Z,26.76
2023-04-02T00:59:48.741Z,26.10
2023-04-02T01:00:48.754Z,28.02
2023-04-02T01:01:48.908Z,29.00
2023-04-02T01:02:48.913Z,27.25
2023-04-02T01:03:48.807Z,30.50
2023-04-02T01:04:48.831Z,27.51
2023-04-02T01:05:48.852Z,27.47
2023-04-02T01:06:48.884Z,27.43
2023-04-02T01:07:48.913Z,27.98
2023-04-02T01:08:48.930Z,30.77
2023-04-02T01:09:48.967Z,27.83
2023-04-02T01:10:48.998Z,29.71
2023-04-02T01:11:48.989Z,29.97
2023-04-02T01:12:49.014Z,27.85
2023-04-02T01:13:48.996Z,28.14
2023-04-02T01:14:49.033Z,30.37
2023-04-02T01:15:49.093Z,30.29
2023-04-02T01:16:49.096Z,30.08
2023-04-02T01:17:49.283Z,26.77
2023-04-02T01:18:49.125Z,27.14
2023-04-02T01:19:49.195Z,28.09
2023-04-02T01:20:49.185Z,28.58
2023-04-02T01:21:49.162Z,26.63
2023-04-02T01:22:49.199Z,26.15
2023-04-02T01:23:49.224Z,25.00
2023-04-02T01:24:49.230Z,27.74
2023-04-02T01:25:49.258Z,29.81
2023-04-02T01:26:49.310Z,28.15
2023-04-02T01:27:49.306Z,27.69
2023-04-02T01:28:49.358Z,28.70
2023-04-02T01:29:49.367Z,26.66
2023-04-02T01:30:49.391Z,26.41
2023-04-02T01:31:49.456Z,27.48
2023-04-02T01:32:49.584Z,27.26
2023-04-02T01:33:49.479Z,25.08
2023-04-02T01:34:49.508Z,26.61
2023-04-02T01:35:49.567Z,27.99
2023-04-02T01:36:49.568Z,27.27
2023-04-02T01:37:49.653Z,28.23
2023-04-02T01:38:49.609Z,25.42
2023-04-02T01:39:49.600Z,29.01
2023-04-02T01:40:49.607Z,28.22
2023-04-02T01:41:49.636Z,30.93
2023-04-02T01:42:49.671Z,29.60
2023-04-02T01:43:49.705Z,28.09
2023-04-02T01:44:49.755Z,28.87
2023-04-02T01:45:49.788Z,27.08
2023-04-02T01:46:49.874Z,25.46
2023-04-02T01:47:49.883Z,27.83
2023-04-02T01:48:49.877Z,28.51
2023-04-02T01:49:49.885Z,26.63
2023-04-02T01:50:49.920Z,30.23
2023-04-02T01:51:49.940Z,28.41
2023-04-02T01:52:49.977Z,27.31
2023-04-02T01:53:50.011Z,28.52
2023-04-02T01:54:50.031Z,27.92
2023-04-02T01:55:50.065Z,27.03
2023-04-02T01:56:50.131Z,27.89
2023-04-02T01:57:50.126Z,26.93
2023-04-02T01:58:50.164Z,28.99
2023-04-02T01:59:50.197Z,29.49
2023-04-02T02:00:50.236Z,27.49
2023-04-02T02:01:50.285Z,27.24
2023-04-02T02:02:50.307Z,29.75
2023-04-02T02:03:50.343Z,27.80
2023-04-02T02:04:50.376Z,27.46
2023-04-02T02:05:50.374Z,29.89
2023-04-02T02:06:50.376Z,29.92
2023-04-02T02:07:50.396Z,29.69
2023-04-02T02:08:50.404Z,28.28
2023-04-02T02:09:50.423Z,27.36
2023-04-02T02:10:50.449Z,29.11
2023-04-02T02:11:50.474Z,31.07
2023-04-02T02:12:50.509Z,28.51
2023-04-02T02:13:50.527Z,28.40
2023-04-02T02:14:50.542Z,25.23
2023-04-02T02:15:50.581Z,28.28
2023-04-02T02:16:50.593Z,27.82
2023-04-02T02:17:50.668Z,29.09
2023-04-02T02:18:50.620Z,28.40
2023-04-02T02:19:50.631Z,28.85
2023-04-02T02:20:50.676Z,29.85
2023-04-02T02:21:50.674Z,29.47
2023-04-02T02:22:50.705Z,25.63
2023-04-02T02:23:50.714Z,29.21
2023-04-02T02:24:50.771Z,28.99
2023-04-02T02:25:50.781Z,28.76
2023-04-02T02:26:50.809Z,31.01
2023-04-02T02:27:50.835Z,28.84
2023-04-02T02:28:50.878Z,29.12
2023-04-02T02:29:50.896Z,28.35
2023-04-02T02:30:50.932Z,27.88
2023-04-02T02:31:50.969Z,30.38
2023-04-02T02:32:51.014Z,25.19
2023-04-02T02:33:50.962Z,26.61
2023-04-02T02:34:50.986Z,28.13
2023-04-02T02:35:51.029Z,27.90
2023-04-02T02:36:51.051Z,29.21
2023-04-02T02:37:51.061Z,29.05
2023-04-02T02:38:51.635Z,26.79
2023-04-02T02:39:51.083Z,27.40
2023-04-02T02:40:51.102Z,29.49
2023-04-02T02:41:51.111Z,28.94
2023-04-02T02:42:51.127Z,29.57
2023-04-02T02:43:51.162Z,32.57
2023-04-02T02:44:51.184Z,29.55
2023-04-02T02:45:51.203Z,28.26
2023-04-02T02:46:51.210Z,26.96
2023-04-02T02:47:51.276Z,30.46
2023-04-02T02:48:51.276Z,28.54
2023-04-02T02:49:51.309Z,26.76
2023-04-02T02:50:51.334Z,30.11
2023-04-02T02:51:51.369Z,28.29
2023-04-02T02:52:51.429Z,28.22
2023-04-02T02:53:51.438Z,27.59
2023-04-02T02:54:51.470Z,28.01
2023-04-02T02:55:51.498Z,28.61
2023-04-02T02:56:51.541Z,28.45
2023-04-02T02:57:51.577Z,28.60
2023-04-02T02:58:51.595Z,30.14
2023-04-02T02:59:51.618Z,33.20
2023-04-02T03:00:51.645Z,28.06
2023-04-02T03:01:51.673Z,29.55
2023-04-02T03:02:51.771Z,28.86
2023-04-02T03:03:51.862Z,29.84
2023-04-02T03:04:51.743Z,27.98
2023-04-02T03:05:51.771Z,28.41
2023-04-02T03:06:51.805Z,30.67
2023-04-02T03:07:51.812Z,29.92
2023-04-02T03:08:51.843Z,29.37
2023-04-02T03:09:51.847Z,30.09
2023-04-02T03:10:51.878Z,29.00
2023-04-02T03:11:51.904Z,31.84
2023-04-02T03:12:51.958Z,27.17
2023-04-02T03:13:51.966Z,26.54
2023-04-02T03:14:51.985Z,28.17
2023-04-02T03:15:52.012Z,32.22
2023-04-02T03:16:51.993Z,27.93
2023-04-02T03:17:52.036Z,29.80
2023-04-02T03:18:52.015Z,29.76
2023-04-02T03:19:52.011Z,26.95
2023-04-02T03:20:52.027Z,27.55
2023-04-02T03:21:52.031Z,27.37
2023-04-02T03:22:52.037Z,29.29
2023-04-02T03:23:52.078Z,29.94
2023-04-02T03:24:52.084Z,29.25
2023-04-02T03:25:52.082Z,28.73
2023-04-02T03:26:52.114Z,29.45
2023-04-02T03:27:52.170Z,27.99
2023-04-02T03:28:52.173Z,29.32
2023-04-02T03:29:52.205Z,27.95
2023-04-02T03:30:52.242Z,29.18
2023-04-02T03:31:52.230Z,29.84
2023-04-02T03:32:52.296Z,29.38
2023-04-02T03:33:52.271Z,29.79
2023-04-02T03:34:52.301Z,28.29
2023-04-02T03:35:52.389Z,25.77
2023-04-02T03:36:52.364Z,26.91
2023-04-02T03:37:52.404Z,28.71
2023-04-02T03:38:52.431Z,29.50
2023-04-02T03:39:52.463Z,27.32
2023-04-02T03:40:52.520Z,30.03
2023-04-02T03:41:52.527Z,29.94
2023-04-02T03:42:52.581Z,30.74
2023-04-02T03:43:52.604Z,30.12
2023-04-02T03:44:52.640Z,29.52
2023-04-02T03:45:52.674Z,28.57
2023-04-02T03:46:52.719Z,29.68
2023-04-02T03:47:52.745Z,28.87
2023-04-02T03:48:52.772Z,29.73
2023-04-02T03:49:52.783Z,30.58
2023-04-02T03:50:52.802Z,30.52
2023-04-02T03:51:52.815Z,29.31
2023-04-02T03:52:52.828Z,28.36
2023-04-02T03:53:52.856Z,30.98
2023-04-02T03:54:53.123Z,26.83
2023-04-02T03:55:52.979Z,29.57
2023-04-02T03:56:53.086Z,30.29
2023-04-02T03:57:53.033Z,27.35
2023-04-02T03:58:53.058Z,26.79
2023-04-02T03:59:53.091Z,30.85
2023-04-02T04:00:53.137Z,29.82
2023-04-02T04:01:53.201Z,29.16
2023-04-02T04:02:53.215Z,31.56
2023-04-02T04:03:53.240Z,31.13
2023-04-02T04:04:53.369Z,25.78
2023-04-02T04:05:53.273Z,31.30
2023-04-02T04:06:53.303Z,31.63
2023-04-02T04:07:53.331Z,30.36
2023-04-02T04:08:53.362Z,29.92
2023-04-02T04:09:53.404Z,28.35
2023-04-02T04:10:53.501Z,29.86
2023-04-02T04:11:53.448Z,26.16
2023-04-02T04:12:53.492Z,31.74
2023-04-02T04:13:53.526Z,27.92
2023-04-02T04:14:53.538Z,29.95
2023-04-02T04:15:53.569Z,29.39
2023-04-02T04:16:53.829Z,29.43
2023-04-02T04:17:53.633Z,28.63
2023-04-02T04:18:53.631Z,30.08
2023-04-02T04:19:53.637Z,31.08
2023-04-02T04:20:53.650Z,28.91
2023-04-02T04:21:53.670Z,31.43
2023-04-02T04:22:53.675Z,30.27
2023-04-02T04:23:53.680Z,29.12
2023-04-02T04:24:53.716Z,28.80
2023-04-02T04:25:53.747Z,28.10
2023-04-02T04:26:53.809Z,28.42
2023-04-02T04:27:53.810Z,29.91
2023-04-02T04:28:53.887Z,25.00
2023-04-02T04:29:53.896Z,29.16
2023-04-02T04:30:53.913Z,28.75
2023-04-02T04:31:54.024Z,27.68
2023-04-02T04:32:54.000Z,30.55
2023-04-02T04:33:54.008Z,32.70
2023-04-02T04:34:54.044Z,31.02
2023-04-02T04:35:54.103Z,27.07
2023-04-02T04:36:54.472Z,27.10
2023-04-02T04:37:54.164Z,29.87
2023-04-02T04:38:54.219Z,29.03
2023-04-02T04:39:54.243Z,29.85
2023-04-02T04:40:54.382Z,30.15
2023-04-02T04:41:54.335Z,30.03
2023-04-02T04:42:54.366Z,27.45
2023-04-02T04:43:54.425Z,27.40
2023-04-02T04:44:54.479Z,27.36
2023-04-02T04:45:54.510Z,29.13
2023-04-02T04:46:54.524Z,29.10
2023-04-02T04:47:54.598Z,28.65
2023-04-02T04:48:54.607Z,28.97
2023-04-02T04:49:54.623Z,28.61
2023-04-02T04:50:54.660Z,30.36
2023-04-02T04:51:54.724Z,28.69
2023-04-02T04:52:54.742Z,28.41
2023-04-02T04:53:54.781Z,28.02
2023-04-02T04:54:54.790Z,30.22
2023-04-02T04:55:54.821Z,27.66
2023-04-02T04:56:54.891Z,28.38
2023-04-02T04:57:54.902Z,29.34
2023-04-02T04:58:54.938Z,30.46
2023-04-02T04:59:54.965Z,30.47
2023-04-02T05:00:55.055Z,31.37
2023-04-02T05:01:55.087Z,27.80
2023-04-02T05:02:55.104Z,30.57
2023-04-02T05:03:55.139Z,30.49
2023-04-02T05:04:55.241Z,28.72
2023-04-02T05:05:55.231Z,29.18
2023-04-02T05:06:55.287Z,28.65
2023-04-02T05:07:56.401Z,27.27
2023-04-02T05:08:55.566Z,29.91
2023-04-02T05:09:55.632Z,26.85
2023-04-02T05:10:55.661Z,29.17
2023-04-02T05:11:55.709Z,25.38
2023-04-02T05:12:55.753Z,30.04
2023-04-02T05:13:55.768Z,29.15
2023-04-02T05:14:55.814Z,30.35
2023-04-02T05:15:55.902Z,28.63
2023-04-02T05:16:55.932Z,31.43
2023-04-02T05:17:56.000Z,27.97
2023-04-02T05:18:56.001Z,27.24
2023-04-02T05:19:56.036Z,28.49
2023-04-02T05:20:56.082Z,29.92
2023-04-02T05:21:56.150Z,31.05
2023-04-02T05:22:56.157Z,26.34
2023-04-02T05:23:56.205Z,26.36
2023-04-02T05:24:56.247Z,25.14
2023-04-02T05:25:56.290Z,26.71
2023-04-02T05:26:56.325Z,27.17
2023-04-02T05:27:56.373Z,28.99
2023-04-02T05:28:56.425Z,28.03
2023-04-02T05:29:56.477Z,27.31
2023-04-02T05:30:56.533Z,25.00
2023-04-02T05:31:56.559Z,30.43
2023-04-02T05:32:56.670Z,28.11
2023-04-02T05:33:56.662Z,25.53
2023-04-02T05:34:56.696Z,27.35
2023-04-02T05:35:56.772Z,27.34
2023-04-02T05:36:56.791Z,25.42
2023-04-02T05:37:56.852Z,28.47
2023-04-02T05:38:56.900Z,27.17
2023-04-02T05:39:56.950Z,27.63
2023-04-02T05:40:56.986Z,28.14
2023-04-02T05:41:57.035Z,28.35
2023-04-02T05:42:57.111Z,26.89
2023-04-02T05:43:57.219Z,28.40
2023-04-02T05:44:57.188Z,27.23
2023-04-02T05:45:57.244Z,28.85
2023-04-02T05:46:57.410Z,31.60
2023-04-02T05:47:57.402Z,28.34
2023-04-02T05:48:57.396Z,27.86
2023-04-02T05:49:57.412Z,28.34
2023-04-02T05:50:57.468Z,27.75
2023-04-02T05:51:57.750Z,28.77
2023-04-02T05:52:57.591Z,26.54
2023-04-02T05:53:57.617Z,28.13
2023-04-02T05:54:57.665Z,28.55
2023-04-02T05:55:57.723Z,26.83
2023-04-02T05:56:57.798Z,28.29
2023-04-02T05:58:21.229Z,28.09
2023-04-02T05:58:57.913Z,28.44
2023-04-02T05:59:57.801Z,29.51
2023-04-02T06:00:57.791Z,29.48
2023-04-02T06:01:57.841Z,30.15
2023-04-02T06:02:57.830Z,30.31
2023-04-02T06:03:57.819Z,31.17
2023-04-02T06:04:57.792Z,31.76
2023-04-02T06:05:57.770Z,27.22
2023-04-02T06:06:57.798Z,30.97
2023-04-02T06:07:57.765Z,32.27
2023-04-02T06:08:57.742Z,30.43
2023-04-02T06:09:57.731Z,27.85
2023-04-02T06:10:57.716Z,28.11
2023-04-02T06:11:57.720Z,30.81
2023-04-02T06:12:57.712Z,29.76
2023-04-02T06:13:57.710Z,29.26
2023-04-02T06:14:57.703Z,27.53
2023-04-02T06:15:57.702Z,28.51
2023-04-02T06:16:57.738Z,29.12
2023-04-02T06:17:57.714Z,29.23
2023-04-02T06:18:57.675Z,30.79
2023-04-02T06:19:57.669Z,26.63
2023-04-02T06:20:57.686Z,28.10
2023-04-02T06:21:57.695Z,29.52
2023-04-02T06:22:57.764Z,28.52
2023-04-02T06:23:57.805Z,30.84
2023-04-02T06:24:57.857Z,32.03
2023-04-02T06:25:57.927Z,30.75
2023-04-02T06:26:57.966Z,30.61
2023-04-02T06:27:58.022Z,26.25
2023-04-02T06:28:58.105Z,29.92
2023-04-02T06:29:58.124Z,29.84
2023-04-02T06:30:58.214Z,31.32
2023-04-02T06:31:58.236Z,27.67
2023-04-02T06:32:58.369Z,30.83
2023-04-02T06:33:58.303Z,31.02
2023-04-02T06:34:58.364Z,32.64
2023-04-02T06:35:58.452Z,30.95
2023-04-02T06:36:58.459Z,33.11
2023-04-02T06:37:58.480Z,31.62
2023-04-02T06:38:58.490Z,30.62
2023-04-02T06:39:58.523Z,28.58
2023-04-02T06:40:59.046Z,28.93
2023-04-02T06:41:59.436Z,27.71
2023-04-02T06:42:58.644Z,28.63
2023-04-02T06:43:58.681Z,31.76
2023-04-02T06:44:58.759Z,31.41
2023-04-02T06:45:58.850Z,28.96
2023-04-02T06:46:58.866Z,29.37
2023-04-02T06:47:59.036Z,29.25
2023-04-02T06:48:58.979Z,29.13
2023-04-02T06:49:59.035Z,28.89
2023-04-02T06:50:59.064Z,28.99
2023-04-02T06:51:59.110Z,31.09
2023-04-02T06:52:59.190Z,28.54
2023-04-02T06:53:59.214Z,26.09
2023-04-02T06:54:59.314Z,30.92
2023-04-02T06:55:59.312Z,30.44
2023-04-02T06:56:59.383Z,32.10
2023-04-02T06:57:59.441Z,30.41
2023-04-02T06:58:59.473Z,30.63
2023-04-02T06:59:59.545Z,31.96
2023-04-02T07:00:59.592Z,29.98
2023-04-02T07:01:59.638Z,30.06
2023-04-02T07:02:59.729Z,26.59
2023-04-02T07:03:59.718Z,28.71
2023-04-02T07:04:59.827Z,29.19
2023-04-02T07:05:59.821Z,29.13
2023-04-02T07:06:59.864Z,28.74
2023-04-02T07:07:59.867Z,27.92
2023-04-02T07:08:59.973Z,33.10
2023-04-02T07:09:59.980Z,31.86
2023-04-02T07:11:00.001Z,29.90
2023-04-02T07:12:00.044Z,30.94
2023-04-02T07:13:00.093Z,30.24
2023-04-02T07:14:00.117Z,30.92
2023-04-02T07:15:00.150Z,31.14
2023-04-02T07:16:00.222Z,32.83
2023-04-02T07:17:00.248Z,28.52
2023-04-02T07:18:00.420Z,30.36
2023-04-02T07:19:00.358Z,30.42
2023-04-02T07:20:00.407Z,31.65
2023-04-02T07:21:00.458Z,29.81
2023-04-02T07:22:00.521Z,27.80
2023-04-02T07:23:00.559Z,32.40
2023-04-02T07:24:00.593Z,28.63
2023-04-02T07:25:00.642Z,29.93
2023-04-02T07:26:00.646Z,28.36
2023-04-02T07:27:00.699Z,30.48
2023-04-02T07:28:00.754Z,29.98
2023-04-02T07:29:00.789Z,29.66
2023-04-02T07:30:00.826Z,31.85
2023-04-02T07:31:01.480Z,31.13
2023-04-02T07:32:00.914Z,30.41
2023-04-02T07:33:00.003Z,29.04
2023-04-02T07:34:01.024Z,29.94
2023-04-02T07:35:01.056Z,30.46
2023-04-02T07:36:01.134Z,27.35
2023-04-02T07:37:01.183Z,29.55
2023-04-02T07:38:01.202Z,29.39
2023-04-02T07:39:01.242Z,30.38
2023-04-02T07:40:01.292Z,26.91
2023-04-02T07:41:01.303Z,30.74
2023-04-02T07:42:01.322Z,28.85
2023-04-02T07:43:01.376Z,27.72
2023-04-02T07:44:01.374Z,28.25
2023-04-02T07:45:02.363Z,28.91
2023-04-02T07:46:01.410Z,31.42
2023-04-02T07:47:01.587Z,33.66
2023-04-02T07:48:01.438Z,34.14
2023-04-02T07:49:01.409Z,29.93
2023-04-02T07:50:01.471Z,29.82
2023-04-02T07:51:01.385Z,27.98
2023-04-02T07:52:01.388Z,30.80
2023-04-02T07:53:01.365Z,30.80
2023-04-02T07:54:01.359Z,32.80
2023-04-02T07:55:01.351Z,29.08
2023-04-02T07:56:01.377Z,32.09
2023-04-02T07:57:01.385Z,31.31
2023-04-02T07:58:01.333Z,29.65
2023-04-02T07:59:01.323Z,28.30
2023-04-02T08:00:01.322Z,28.64
2023-04-02T08:01:01.317Z,31.45
2023-04-02T08:02:01.332Z,30.94
2023-04-02T08:03:01.404Z,31.87
2023-04-02T08:04:01.336Z,28.96
2023-04-02T08:05:01.285Z,29.78
2023-04-02T08:06:01.272Z,29.28
2023-04-02T08:07:01.263Z,30.76
2023-04-02T08:08:01.254Z,30.55
2023-04-02T08:09:01.244Z,32.44
2023-04-02T08:10:01.422Z,31.57
2023-04-02T08:11:01.342Z,30.66
2023-04-02T08:12:01.402Z,31.48
2023-04-02T08:13:01.459Z,30.48
2023-04-02T08:14:01.480Z,29.23
2023-04-02T08:15:01.533Z,34.28
2023-04-02T08:16:01.541Z,31.44
2023-04-02T08:17:01.617Z,30.38
2023-04-02T08:18:01.650Z,30.70
2023-04-02T08:19:01.668Z,35.06
2023-04-02T08:20:01.714Z,34.86
2023-04-02T08:21:01.741Z,29.77
2023-04-02T08:22:01.772Z,30.42
2023-04-02T08:23:01.819Z,29.39
2023-04-02T08:24:01.866Z,32.47
2023-04-02T08:25:01.907Z,31.16
2023-04-02T08:26:01.963Z,31.89
2023-04-02T08:27:02.016Z,31.44
2023-04-02T08:28:02.056Z,31.43
2023-04-02T08:29:02.141Z,29.63
2023-04-02T08:30:02.161Z,32.01
2023-04-02T08:31:02.374Z,31.11
2023-04-02T08:32:02.256Z,27.39
2023-04-02T08:33:02.360Z,29.73
2023-04-02T08:34:02.360Z,30.53
2023-04-02T08:35:02.406Z,30.20
2023-04-02T08:36:02.472Z,30.59
2023-04-02T08:37:02.473Z,31.45
2023-04-02T08:38:02.497Z,33.20
2023-04-02T08:39:02.530Z,33.35
2023-04-02T08:40:02.582Z,32.29
2023-04-02T08:41:02.645Z,32.52
2023-04-02T08:42:02.701Z,27.10
2023-04-02T08:43:02.773Z,31.44
2023-04-02T08:44:02.807Z,35.00
2023-04-02T08:45:10.945Z,30.54
2023-04-02T08:46:02.881Z,30.89
2023-04-02T08:47:02.851Z,31.83
2023-04-02T08:48:02.926Z,32.00
2023-04-02T08:49:02.826Z,33.08
2023-04-02T08:50:02.816Z,32.76
2023-04-02T08:51:02.809Z,32.41
2023-04-02T08:52:02.800Z,29.40
2023-04-02T08:53:02.794Z,29.65
2023-04-02T08:54:02.796Z,29.79
2023-04-02T08:55:02.779Z,32.71
2023-04-02T08:56:02.774Z,30.86
2023-04-02T08:57:02.865Z,31.03
2023-04-02T08:58:02.799Z,29.74
2023-04-02T08:59:02.765Z,31.70
2023-04-02T09:00:02.765Z,32.34
2023-04-02T09:01:02.786Z,30.09
2023-04-02T09:02:02.788Z,30.97
2023-04-02T09:03:02.745Z,32.54
2023-04-02T09:04:02.736Z,31.99
2023-04-02T09:05:02.740Z,34.26
2023-04-02T09:06:02.737Z,32.48
2023-04-02T09:07:02.716Z,34.22
2023-04-02T09:08:02.696Z,31.63
2023-04-02T09:09:02.705Z,33.56
2023-04-02T09:10:02.738Z,30.49
2023-04-02T09:11:02.806Z,32.65
2023-04-02T09:12:02.855Z,32.40
2023-04-02T09:13:02.915Z,31.42
2023-04-02T09:14:02.957Z,30.58
2023-04-02T09:15:03.025Z,31.12
2023-04-02T09:16:03.056Z,32.04
2023-04-02T09:17:03.162Z,33.89
2023-04-02T09:18:03.207Z,29.31
2023-04-02T09:19:03.230Z,27.99
2023-04-02T09:20:03.269Z,33.52
2023-04-02T09:21:03.315Z,33.29
2023-04-02T09:22:03.364Z,32.33
2023-04-02T09:23:03.413Z,31.74
2023-04-02T09:24:05.080Z,31.65
2023-04-02T09:25:03.460Z,34.42
2023-04-02T09:26:04.990Z,35.06
2023-04-02T09:27:03.643Z,35.25
2023-04-02T09:28:03.693Z,31.64
2023-04-02T09:29:03.723Z,33.29
2023-04-02T09:30:03.746Z,32.22
2023-04-02T09:31:05.522Z,30.82
2023-04-02T09:32:03.785Z,36.76
2023-04-02T09:33:03.793Z,35.33
2023-04-02T09:34:03.753Z,34.49
2023-04-02T09:35:09.595Z,37.56
2023-04-02T09:36:03.791Z,37.93
2023-04-02T09:37:03.727Z,38.14
2023-04-02T09:38:03.720Z,38.63
2023-04-02T09:39:03.716Z,36.11
2023-04-02T09:40:03.711Z,35.86
2023-04-02T09:41:03.733Z,34.08
2023-04-02T09:42:05.783Z,36.60
2023-04-02T09:43:03.692Z,36.73
2023-04-02T09:44:03.693Z,36.78
2023-04-02T09:45:03.681Z,34.05
2023-04-02T09:46:03.674Z,37.12
2023-04-02T09:47:03.756Z,35.12
2023-04-02T09:48:03.695Z,34.41
2023-04-02T09:49:03.700Z,36.38
2023-04-02T09:50:03.650Z,32.98
2023-04-02T09:51:03.640Z,35.73
2023-04-02T09:52:03.632Z,32.83
2023-04-02T09:53:03.635Z,35.88
2023-04-02T09:54:03.642Z,33.32
2023-04-02T09:55:03.619Z,32.90
2023-04-02T09:56:03.604Z,34.59
2023-04-02T09:57:03.630Z,32.93
2023-04-02T09:58:03.597Z,31.93
2023-04-02T09:59:03.594Z,33.45
2023-04-02T10:00:03.579Z,32.52
2023-04-02T10:01:03.603Z,36.78
2023-04-02T10:02:03.569Z,32.26
2023-04-02T10:03:03.625Z,33.11
2023-04-02T10:04:03.652Z,33.83
2023-04-02T10:05:03.561Z,34.96
2023-04-02T10:06:03.533Z,31.98
2023-04-02T10:07:03.524Z,35.49
2023-04-02T10:08:03.512Z,33.37
2023-04-02T10:09:03.512Z,33.91
2023-04-02T10:10:03.503Z,35.68
2023-04-02T10:11:03.497Z,35.95
2023-04-02T10:12:03.493Z,32.88
2023-04-02T10:13:03.495Z,36.46
2023-04-02T10:14:03.471Z,31.66
2023-04-02T10:15:03.466Z,34.07
2023-04-02T10:16:03.455Z,34.73
2023-04-02T10:17:03.471Z,36.48
2023-04-02T10:18:03.484Z,33.88
2023-04-02T10:19:03.441Z,36.14
2023-04-02T10:20:03.450Z,36.64
2023-04-02T10:21:03.490Z,35.81
2023-04-02T10:22:03.461Z,35.00
2023-04-02T10:23:05.407Z,38.51
2023-04-02T10:24:03.470Z,42.65
2023-04-02T10:25:03.469Z,40.29
2023-04-02T10:26:03.458Z,40.63
2023-04-02T10:27:03.450Z,39.69
2023-04-02T10:28:03.439Z,40.56
2023-04-02T10:29:05.601Z,37.20
2023-04-02T10:30:03.424Z,37.64
2023-04-02T10:31:03.463Z,38.08
2023-04-02T10:32:03.418Z,38.26
2023-04-02T10:33:03.451Z,40.21
2023-04-02T10:34:03.420Z,39.25
2023-04-02T10:35:03.457Z,41.98
2023-04-02T10:36:03.442Z,40.99
2023-04-02T10:37:03.413Z,40.39
2023-04-02T10:38:03.382Z,41.81
2023-04-02T10:39:03.379Z,40.84
2023-04-02T10:40:03.365Z,39.74
2023-04-02T10:41:03.372Z,38.98
2023-04-02T10:42:03.358Z,41.35
2023-04-02T10:43:03.361Z,41.91
2023-04-02T10:44:16.721Z,41.06
2023-04-02T10:45:03.370Z,41.55
2023-04-02T10:46:03.472Z,42.38
2023-04-02T10:47:03.332Z,43.08
2023-04-02T10:48:03.400Z,42.53
2023-04-02T10:49:03.371Z,43.55
2023-04-02T10:50:03.299Z,45.58
2023-04-02T10:51:03.297Z,42.48
2023-04-02T10:52:03.326Z,43.42
2023-04-02T10:53:03.315Z,43.54
2023-04-02T10:54:03.270Z,41.00
2023-04-02T10:55:03.293Z,42.42
2023-04-02T10:56:03.268Z,44.08
2023-04-02T10:57:03.294Z,40.97
2023-04-02T10:58:03.277Z,42.62
2023-04-02T10:59:03.241Z,44.35
2023-04-02T11:00:03.240Z,45.53
2023-04-02T11:01:03.228Z,45.56
2023-04-02T11:02:03.261Z,46.59
2023-04-02T11:03:03.310Z,45.31
2023-04-02T11:04:03.206Z,46.23
2023-04-02T11:05:03.190Z,43.59
2023-04-02T11:06:03.188Z,44.31
2023-04-02T11:07:13.060Z,46.44
2023-04-02T11:08:03.174Z,46.92
2023-04-02T11:09:03.195Z,47.80
2023-04-02T11:10:03.184Z,48.58
2023-04-02T11:11:04.640Z,47.64
2023-04-02T11:12:03.319Z,46.75
2023-04-02T11:13:03.346Z,47.23
2023-04-02T11:14:03.412Z,46.96
2023-04-02T11:15:03.387Z,46.94
2023-04-02T11:16:03.444Z,49.48
2023-04-02T11:17:03.461Z,50.79
2023-04-02T11:18:03.489Z,49.34
2023-04-02T11:19:03.485Z,51.86
2023-04-02T11:20:03.514Z,50.00
2023-04-02T11:21:03.522Z,46.74
2023-04-02T11:22:06.448Z,46.59
2023-04-02T11:23:03.544Z,46.85
2023-04-02T11:24:03.559Z,47.36
2023-04-02T11:25:03.554Z,49.20
2023-04-02T11:26:03.535Z,49.29
2023-04-02T11:27:03.516Z,50.70
2023-04-02T11:28:03.509Z,52.53
2023-04-02T11:29:03.505Z,51.04
2023-04-02T11:30:03.492Z,51.19
2023-04-02T11:31:03.493Z,50.67
2023-04-02T11:32:03.486Z,50.73
2023-04-02T11:33:03.498Z,51.41
2023-04-02T11:34:03.461Z,52.86
2023-04-02T11:35:07.531Z,51.52
2023-04-02T11:36:03.530Z,51.88
2023-04-02T11:37:03.451Z,52.61
2023-04-02T11:38:03.471Z,52.46
2023-04-02T11:39:14.523Z,53.26
2023-04-02T11:40:03.487Z,52.00
2023-04-02T11:41:03.507Z,53.50
2023-04-02T11:42:03.470Z,53.64
2023-04-02T11:43:03.466Z,53.03
2023-04-02T11:44:03.475Z,55.86
2023-04-02T11:45:03.470Z,54.59
2023-04-02T11:46:03.464Z,53.58
2023-04-02T11:47:03.539Z,54.16
2023-04-02T11:48:03.476Z,53.93
2023-04-02T11:49:03.438Z,54.40
2023-04-02T11:50:03.425Z,53.13
2023-04-02T11:51:03.438Z,54.10
2023-04-02T11:52:11.870Z,53.75
2023-04-02T11:53:03.411Z,54.27
2023-04-02T11:54:03.418Z,55.41
2023-04-02T11:55:03.396Z,56.46
2023-04-02T11:56:03.396Z,56.70
2023-04-02T11:57:03.480Z,57.38
2023-04-02T11:58:03.373Z,52.49
2023-04-02T11:59:03.364Z,58.94
2023-04-02T12:00:03.354Z,56.38
2023-04-02T12:01:03.351Z,52.70
2023-04-02T12:02:03.403Z,56.29
2023-04-02T12:03:03.416Z,55.49
2023-04-02T12:04:03.336Z,56.02
2023-04-02T12:05:03.409Z,54.63
2023-04-02T12:06:04.325Z,56.83
2023-04-02T12:07:03.377Z,60.85
2023-04-02T12:08:03.305Z,55.86
2023-04-02T12:09:03.297Z,55.11
2023-04-02T12:10:03.291Z,56.24
2023-04-02T12:11:03.284Z,57.15
2023-04-02T12:12:03.264Z,50.61
2023-04-02T12:13:03.288Z,52.29
2023-04-02T12:14:03.266Z,51.16
2023-04-02T12:15:03.259Z,51.76
2023-04-02T12:16:03.238Z,50.02
2023-04-02T12:17:03.320Z,51.35
2023-04-02T12:18:03.371Z,51.95
2023-04-02T12:19:03.213Z,54.02
2023-04-02T12:20:05.622Z,55.16
2023-04-02T12:21:03.221Z,58.34
2023-04-02T12:22:03.204Z,58.24
2023-04-02T12:23:03.198Z,52.63
2023-04-02T12:24:03.189Z,52.90
2023-04-02T12:25:03.201Z,53.27
2023-04-02T12:26:03.568Z,55.81
2023-04-02T12:27:03.162Z,54.78
2023-04-02T12:28:03.152Z,52.75
2023-04-02T12:29:03.175Z,54.75
2023-04-02T12:30:03.141Z,54.07
2023-04-02T12:31:03.145Z,52.71
2023-04-02T12:32:03.133Z,56.00
2023-04-02T12:33:03.155Z,52.54
2023-04-02T12:34:03.120Z,52.16
2023-04-02T12:35:03.107Z,54.49
2023-04-02T12:36:03.111Z,49.88
2023-04-02T12:37:03.090Z,50.33
2023-04-02T12:38:03.085Z,52.34
2023-04-02T12:39:03.080Z,56.23
2023-04-02T12:40:03.074Z,50.20
2023-04-02T12:41:03.073Z,53.28
2023-04-02T12:42:03.067Z,51.92
2023-04-02T12:43:03.054Z,57.83
2023-04-02T12:44:03.045Z,53.79
2023-04-02T12:45:03.072Z,53.10
2023-04-02T12:46:03.099Z,54.84
2023-04-02T12:47:03.030Z,52.83
2023-04-02T12:48:03.136Z,53.90
2023-04-02T12:49:03.027Z,54.38
2023-04-02T12:50:03.016Z,57.40
2023-04-02T12:51:03.021Z,56.19
2023-04-02T12:52:02.998Z,57.03
2023-04-02T12:53:02.987Z,59.05